aviador You're here:

LEIB Decoded Metar

IBIZA in SPAIN
Report Time2018-02-18 21:30:00
UTC Time2018-02-18 21:59:41
Flight Rules vfr VFR
Wind350° at 02 kt
W.Decomp.*RWY 06: 0.7 kt HW 1.9 kt LCW
W.Rank350° ranks 13
Current wind is below 350° avg. (5.8)
Visibility9999 m
Phenomena:N/A
Clouds:Few 030 Hf
Scattered 040 Hf
Expected CloudBase > 400 ft AGL from Temp-Dew spread
CeilingNone
Temp08°C (ISA -7)
Dew Point07°C (93% RH)
AAT6.6°C
QNH1020 hPa
Density Alt-896 ft
Elevation39 ft
Report Wrong Elevation
Raw Report
LEIB 182130Z 35002KT 9999 FEW030 SCT040 08/07 Q1020 NOSIG=

Extra information for LEIB:More info

Metar Taf Metar & Taf Last 4 Metars F.Rules Stats Wind Profile Meteogram Temp Stats Airport Information Weather charts Add Link Nearby VenuesMetar ALERT Operation Metar Decoded Social comments